sensor_id;sensor_type;location;lat;lon;timestamp;temperature;humidity
2873;DHT22;1444;49.166;7.312;2022-12-29T00:00:02;11.40;99.90
2873;DHT22;1444;49.166;7.312;2022-12-29T00:02:29;11.50;99.90
2873;DHT22;1444;49.166;7.312;2022-12-29T00:04:56;11.50;99.90
2873;DHT22;1444;49.166;7.312;2022-12-29T00:07:23;11.50;99.90
2873;DHT22;1444;49.166;7.312;2022-12-29T00:09:51;11.60;99.90
2873;DHT22;1444;49.166;7.312;2022-12-29T00:12:17;11.60;99.90
2873;DHT22;1444;49.166;7.312;2022-12-29T00:14:44;11.80;99.90
2873;DHT22;1444;49.166;7.312;2022-12-29T00:17:29;11.80;99.90
2873;DHT22;1444;49.166;7.312;2022-12-29T00:19:56;11.70;99.90
2873;DHT22;1444;49.166;7.312;2022-12-29T00:22:40;11.80;99.90
2873;DHT22;1444;49.166;7.312;2022-12-29T00:25:26;11.70;99.90
2873;DHT22;1444;49.166;7.312;2022-12-29T00:28:10;11.70;99.90
2873;DHT22;1444;49.166;7.312;2022-12-29T00:30:59;11.70;99.90
2873;DHT22;1444;49.166;7.312;2022-12-29T00:33:43;11.70;99.90
2873;DHT22;1444;49.166;7.312;2022-12-29T00:36:31;11.60;99.90
2873;DHT22;1444;49.166;7.312;2022-12-29T00:39:01;11.60;99.90
2873;DHT22;1444;49.166;7.312;2022-12-29T00:41:47;11.40;99.90
2873;DHT22;1444;49.166;7.312;2022-12-29T00:44:32;11.40;99.90
2873;DHT22;1444;49.166;7.312;2022-12-29T00:46:58;11.30;99.90
2873;DHT22;1444;49.166;7.312;2022-12-29T00:49:28;11.40;99.90
2873;DHT22;1444;49.166;7.312;2022-12-29T00:51:59;11.30;99.90
2873;DHT22;1444;49.166;7.312;2022-12-29T00:54:26;11.40;99.90
2873;DHT22;1444;49.166;7.312;2022-12-29T00:56:54;11.30;99.90
2873;DHT22;1444;49.166;7.312;2022-12-29T00:59:21;11.40;99.90
2873;DHT22;1444;49.166;7.312;2022-12-29T01:01:50;10.40;99.90
2873;DHT22;1444;49.166;7.312;2022-12-29T01:04:18;11.40;99.90
2873;DHT22;1444;49.166;7.312;2022-12-29T01:06:46;11.40;99.90
2873;DHT22;1444;49.166;7.312;2022-12-29T01:09:13;11.40;99.90
2873;DHT22;1444;49.166;7.312;2022-12-29T01:11:59;11.60;99.90
2873;DHT22;1444;49.166;7.312;2022-12-29T01:14:26;11.60;99.90
2873;DHT22;1444;49.166;7.312;2022-12-29T01:16:53;11.60;99.90
2873;DHT22;1444;49.166;7.312;2022-12-29T01:19:21;11.60;99.90
2873;DHT22;1444;49.166;7.312;2022-12-29T01:21:48;11.50;99.90
2873;DHT22;1444;49.166;7.312;2022-12-29T01:24:16;11.40;99.90
2873;DHT22;1444;49.166;7.312;2022-12-29T01:26:43;11.40;99.90
2873;DHT22;1444;49.166;7.312;2022-12-29T01:29:11;11.40;99.90
2873;DHT22;1444;49.166;7.312;2022-12-29T01:31:38;11.30;99.90
2873;DHT22;1444;49.166;7.312;2022-12-29T01:34:05;11.40;99.90
2873;DHT22;1444;49.166;7.312;2022-12-29T01:36:32;11.40;99.90
2873;DHT22;1444;49.166;7.312;2022-12-29T01:38:59;11.40;99.90
2873;DHT22;1444;49.166;7.312;2022-12-29T01:41:26;11.10;99.90
2873;DHT22;1444;49.166;7.312;2022-12-29T01:43:54;11.20;99.90
2873;DHT22;1444;49.166;7.312;2022-12-29T01:46:26;11.40;99.90
2873;DHT22;1444;49.166;7.312;2022-12-29T01:48:59;11.40;99.90
2873;DHT22;1444;49.166;7.312;2022-12-29T01:51:27;11.50;99.90
2873;DHT22;1444;49.166;7.312;2022-12-29T01:53:57;11.50;99.90
2873;DHT22;1444;49.166;7.312;2022-12-29T01:56:26;11.50;99.90
2873;DHT22;1444;49.166;7.312;2022-12-29T01:58:56;11.40;99.90
2873;DHT22;1444;49.166;7.312;2022-12-29T02:01:28;11.40;99.90
2873;DHT22;1444;49.166;7.312;2022-12-29T02:03:55;11.40;99.90
2873;DHT22;1444;49.166;7.312;2022-12-29T02:06:23;11.40;99.90
2873;DHT22;1444;49.166;7.312;2022-12-29T02:08:53;11.40;99.90
2873;DHT22;1444;49.166;7.312;2022-12-29T02:11:23;11.30;99.90
2873;DHT22;1444;49.166;7.312;2022-12-29T02:13:49;11.30;99.90
2873;DHT22;1444;49.166;7.312;2022-12-29T02:16:46;11.30;99.90
2873;DHT22;1444;49.166;7.312;2022-12-29T02:19:48;11.40;99.90
2873;DHT22;1444;49.166;7.312;2022-12-29T02:22:27;11.40;99.90
2873;DHT22;1444;49.166;7.312;2022-12-29T02:25:15;11.30;99.90
2873;DHT22;1444;49.166;7.312;2022-12-29T02:27:57;11.20;99.90
2873;DHT22;1444;49.166;7.312;2022-12-29T02:30:56;11.40;99.90
2873;DHT22;1444;49.166;7.312;2022-12-29T02:33:36;11.30;99.90
2873;DHT22;1444;49.166;7.312;2022-12-29T02:36:12;11.30;99.90
2873;DHT22;1444;49.166;7.312;2022-12-29T02:38:51;11.40;99.90
2873;DHT22;1444;49.166;7.312;2022-12-29T02:41:22;11.30;99.90
2873;DHT22;1444;49.166;7.312;2022-12-29T02:43:56;11.40;99.90
2873;DHT22;1444;49.166;7.312;2022-12-29T02:46:32;11.30;99.90
2873;DHT22;1444;49.166;7.312;2022-12-29T02:49:06;11.40;99.90
2873;DHT22;1444;49.166;7.312;2022-12-29T02:51:37;11.40;99.90
2873;DHT22;1444;49.166;7.312;2022-12-29T02:54:05;11.50;99.90
2873;DHT22;1444;49.166;7.312;2022-12-29T02:56:49;11.50;99.90
2873;DHT22;1444;49.166;7.312;2022-12-29T02:59:16;11.30;99.90
2873;DHT22;1444;49.166;7.312;2022-12-29T03:07:54;11.50;99.90
2873;DHT22;1444;49.166;7.312;2022-12-29T03:10:33;11.40;99.90
2873;DHT22;1444;49.166;7.312;2022-12-29T03:13:07;11.40;99.90
2873;DHT22;1444;49.166;7.312;2022-12-29T03:16:02;11.30;99.90
2873;DHT22;1444;49.166;7.312;2022-12-29T03:18:39;11.40;99.90
2873;DHT22;1444;49.166;7.312;2022-12-29T03:21:11;11.40;99.90
2873;DHT22;1444;49.166;7.312;2022-12-29T03:23:41;11.40;99.90
2873;DHT22;1444;49.166;7.312;2022-12-29T03:26:10;11.50;99.90
2873;DHT22;1444;49.166;7.312;2022-12-29T03:28:40;11.60;99.90
2873;DHT22;1444;49.166;7.312;2022-12-29T03:31:08;11.50;99.90
2873;DHT22;1444;49.166;7.312;2022-12-29T03:33:38;11.50;99.90
2873;DHT22;1444;49.166;7.312;2022-12-29T03:36:08;11.50;99.90
2873;DHT22;1444;49.166;7.312;2022-12-29T03:38:40;11.50;99.90
2873;DHT22;1444;49.166;7.312;2022-12-29T03:41:11;11.50;99.90
2873;DHT22;1444;49.166;7.312;2022-12-29T03:43:39;11.60;99.90
2873;DHT22;1444;49.166;7.312;2022-12-29T03:46:06;11.70;99.90
2873;DHT22;1444;49.166;7.312;2022-12-29T03:48:32;11.70;99.90
2873;DHT22;1444;49.166;7.312;2022-12-29T03:51:00;11.60;99.90
2873;DHT22;1444;49.166;7.312;2022-12-29T03:53:27;11.70;99.90
2873;DHT22;1444;49.166;7.312;2022-12-29T03:55:54;11.80;99.90
2873;DHT22;1444;49.166;7.312;2022-12-29T03:58:20;11.70;99.90
2873;DHT22;1444;49.166;7.312;2022-12-29T04:00:47;11.70;99.90
2873;DHT22;1444;49.166;7.312;2022-12-29T04:03:14;11.80;99.90
2873;DHT22;1444;49.166;7.312;2022-12-29T04:05:40;11.80;99.90
2873;DHT22;1444;49.166;7.312;2022-12-29T04:08:08;11.80;99.90
2873;DHT22;1444;49.166;7.312;2022-12-29T04:10:35;11.70;99.90
2873;DHT22;1444;49.166;7.312;2022-12-29T04:13:02;11.80;99.90
2873;DHT22;1444;49.166;7.312;2022-12-29T04:15:28;11.80;99.90
2873;DHT22;1444;49.166;7.312;2022-12-29T04:17:55;11.90;99.90
2873;DHT22;1444;49.166;7.312;2022-12-29T04:20:21;11.80;99.90
2873;DHT22;1444;49.166;7.312;2022-12-29T04:23:07;11.90;99.90
2873;DHT22;1444;49.166;7.312;2022-12-29T04:25:34;11.90;99.90
2873;DHT22;1444;49.166;7.312;2022-12-29T04:28:01;11.80;99.90
2873;DHT22;1444;49.166;7.312;2022-12-29T04:30:28;11.90;99.90
2873;DHT22;1444;49.166;7.312;2022-12-29T04:32:54;11.80;99.90
2873;DHT22;1444;49.166;7.312;2022-12-29T04:35:21;11.90;99.90
2873;DHT22;1444;49.166;7.312;2022-12-29T04:37:48;11.80;99.90
2873;DHT22;1444;49.166;7.312;2022-12-29T04:40:16;11.90;99.90
2873;DHT22;1444;49.166;7.312;2022-12-29T04:42:43;11.80;99.90
2873;DHT22;1444;49.166;7.312;2022-12-29T04:45:10;11.80;99.90
2873;DHT22;1444;49.166;7.312;2022-12-29T04:47:37;11.90;99.90
2873;DHT22;1444;49.166;7.312;2022-12-29T04:50:04;11.90;99.90
2873;DHT22;1444;49.166;7.312;2022-12-29T04:52:31;11.90;99.90
2873;DHT22;1444;49.166;7.312;2022-12-29T04:54:57;11.90;99.90
2873;DHT22;1444;49.166;7.312;2022-12-29T04:57:25;11.90;99.90
2873;DHT22;1444;49.166;7.312;2022-12-29T04:59:52;12.00;99.90
2873;DHT22;1444;49.166;7.312;2022-12-29T05:02:19;12.10;99.90
2873;DHT22;1444;49.166;7.312;2022-12-29T05:04:45;12.00;99.90
2873;DHT22;1444;49.166;7.312;2022-12-29T05:07:13;12.00;99.90
2873;DHT22;1444;49.166;7.312;2022-12-29T05:09:39;12.00;99.90
2873;DHT22;1444;49.166;7.312;2022-12-29T05:12:06;12.00;99.90
2873;DHT22;1444;49.166;7.312;2022-12-29T05:14:34;12.10;99.90
2873;DHT22;1444;49.166;7.312;2022-12-29T05:17:01;12.10;99.90
2873;DHT22;1444;49.166;7.312;2022-12-29T05:19:27;12.30;99.90
2873;DHT22;1444;49.166;7.312;2022-12-29T05:21:54;12.20;99.90
2873;DHT22;1444;49.166;7.312;2022-12-29T05:24:21;12.30;99.90
2873;DHT22;1444;49.166;7.312;2022-12-29T05:26:47;12.30;99.90
2873;DHT22;1444;49.166;7.312;2022-12-29T05:29:14;12.20;99.90
2873;DHT22;1444;49.166;7.312;2022-12-29T05:31:42;12.30;99.90
2873;DHT22;1444;49.166;7.312;2022-12-29T05:34:10;12.30;99.90
2873;DHT22;1444;49.166;7.312;2022-12-29T05:36:37;12.40;99.90
2873;DHT22;1444;49.166;7.312;2022-12-29T05:39:04;12.50;99.90
2873;DHT22;1444;49.166;7.312;2022-12-29T05:41:32;12.50;99.90
2873;DHT22;1444;49.166;7.312;2022-12-29T05:44:00;12.40;99.90
2873;DHT22;1444;49.166;7.312;2022-12-29T05:46:27;12.40;99.90
2873;DHT22;1444;49.166;7.312;2022-12-29T05:48:55;12.50;99.90
2873;DHT22;1444;49.166;7.312;2022-12-29T05:51:21;12.40;99.90
2873;DHT22;1444;49.166;7.312;2022-12-29T05:53:48;12.50;99.90
2873;DHT22;1444;49.166;7.312;2022-12-29T05:56:15;12.50;99.80
2873;DHT22;1444;49.166;7.312;2022-12-29T05:58:42;12.60;99.90
2873;DHT22;1444;49.166;7.312;2022-12-29T06:01:08;12.50;99.60
2873;DHT22;1444;49.166;7.312;2022-12-29T06:03:35;12.50;99.60
2873;DHT22;1444;49.166;7.312;2022-12-29T06:06:03;12.60;99.60
2873;DHT22;1444;49.166;7.312;2022-12-29T06:08:30;12.50;99.60
2873;DHT22;1444;49.166;7.312;2022-12-29T06:10:57;12.60;99.40
2873;DHT22;1444;49.166;7.312;2022-12-29T06:13:23;12.70;99.60
2873;DHT22;1444;49.166;7.312;2022-12-29T06:15:50;12.70;99.70
2873;DHT22;1444;49.166;7.312;2022-12-29T06:18:17;12.40;99.50
2873;DHT22;1444;49.166;7.312;2022-12-29T06:20:44;12.60;99.70
2873;DHT22;1444;49.166;7.312;2022-12-29T06:23:12;12.70;99.30
2873;DHT22;1444;49.166;7.312;2022-12-29T06:25:38;12.60;99.30
2873;DHT22;1444;49.166;7.312;2022-12-29T06:28:05;12.70;99.10
2873;DHT22;1444;49.166;7.312;2022-12-29T06:30:32;12.80;99.10
2873;DHT22;1444;49.166;7.312;2022-12-29T06:32:59;12.80;99.00
2873;DHT22;1444;49.166;7.312;2022-12-29T06:35:25;12.80;98.80
2873;DHT22;1444;49.166;7.312;2022-12-29T06:37:52;12.80;98.70
2873;DHT22;1444;49.166;7.312;2022-12-29T06:40:20;12.90;99.00
2873;DHT22;1444;49.166;7.312;2022-12-29T06:42:48;12.80;98.80
2873;DHT22;1444;49.166;7.312;2022-12-29T06:45:15;12.90;98.80
2873;DHT22;1444;49.166;7.312;2022-12-29T06:47:41;12.90;98.70
2873;DHT22;1444;49.166;7.312;2022-12-29T06:50:08;12.80;98.70
2873;DHT22;1444;49.166;7.312;2022-12-29T06:52:35;12.90;98.60
2873;DHT22;1444;49.166;7.312;2022-12-29T06:55:02;13.00;98.70
2873;DHT22;1444;49.166;7.312;2022-12-29T06:57:30;12.80;98.50
2873;DHT22;1444;49.166;7.312;2022-12-29T06:59:57;12.80;98.50
2873;DHT22;1444;49.166;7.312;2022-12-29T07:02:23;12.80;98.70
2873;DHT22;1444;49.166;7.312;2022-12-29T07:04:51;12.70;98.70
2873;DHT22;1444;49.166;7.312;2022-12-29T07:07:18;12.80;98.80
2873;DHT22;1444;49.166;7.312;2022-12-29T07:09:45;12.80;99.10
2873;DHT22;1444;49.166;7.312;2022-12-29T07:12:12;12.80;98.80
2873;DHT22;1444;49.166;7.312;2022-12-29T07:14:40;12.80;99.00
2873;DHT22;1444;49.166;7.312;2022-12-29T07:17:06;12.80;98.70
2873;DHT22;1444;49.166;7.312;2022-12-29T07:19:33;12.90;99.00
2873;DHT22;1444;49.166;7.312;2022-12-29T07:22:00;12.80;99.00
2873;DHT22;1444;49.166;7.312;2022-12-29T07:24:27;12.90;99.20
2873;DHT22;1444;49.166;7.312;2022-12-29T07:26:53;12.80;99.00
2873;DHT22;1444;49.166;7.312;2022-12-29T07:29:20;12.80;99.20
2873;DHT22;1444;49.166;7.312;2022-12-29T07:31:48;12.80;99.20
2873;DHT22;1444;49.166;7.312;2022-12-29T07:34:15;12.80;99.20
2873;DHT22;1444;49.166;7.312;2022-12-29T07:36:41;12.90;99.60
2873;DHT22;1444;49.166;7.312;2022-12-29T07:39:08;12.80;99.80
2873;DHT22;1444;49.166;7.312;2022-12-29T07:41:35;12.60;99.60
2873;DHT22;1444;49.166;7.312;2022-12-29T07:44:01;12.80;99.60
2873;DHT22;1444;49.166;7.312;2022-12-29T07:46:28;12.70;99.60
2873;DHT22;1444;49.166;7.312;2022-12-29T07:48:56;12.80;99.70
2873;DHT22;1444;49.166;7.312;2022-12-29T07:51:23;12.80;99.80
2873;DHT22;1444;49.166;7.312;2022-12-29T07:53:49;12.80;99.90
2873;DHT22;1444;49.166;7.312;2022-12-29T07:56:16;12.60;99.90
2873;DHT22;1444;49.166;7.312;2022-12-29T07:58:42;12.70;99.90
2873;DHT22;1444;49.166;7.312;2022-12-29T08:01:09;12.60;99.90
2873;DHT22;1444;49.166;7.312;2022-12-29T08:06:05;12.60;99.90
2873;DHT22;1444;49.166;7.312;2022-12-29T08:08:31;12.70;99.90
2873;DHT22;1444;49.166;7.312;2022-12-29T08:10:58;12.70;99.90
2873;DHT22;1444;49.166;7.312;2022-12-29T08:13:25;12.60;99.90
2873;DHT22;1444;49.166;7.312;2022-12-29T08:18:18;12.80;99.90
2873;DHT22;1444;49.166;7.312;2022-12-29T08:20:45;12.80;99.90
2873;DHT22;1444;49.166;7.312;2022-12-29T08:23:13;12.60;99.90
2873;DHT22;1444;49.166;7.312;2022-12-29T08:25:40;12.50;99.90
2873;DHT22;1444;49.166;7.312;2022-12-29T08:30:33;12.50;99.90
2873;DHT22;1444;49.166;7.312;2022-12-29T08:35:27;12.30;99.90
2873;DHT22;1444;49.166;7.312;2022-12-29T08:37:54;12.20;99.90
2873;DHT22;1444;49.166;7.312;2022-12-29T08:40:22;12.20;99.90
2873;DHT22;1444;49.166;7.312;2022-12-29T08:45:16;12.00;99.90
2873;DHT22;1444;49.166;7.312;2022-12-29T08:47:43;12.00;99.90
2873;DHT22;1444;49.166;7.312;2022-12-29T08:50:10;11.90;99.90
2873;DHT22;1444;49.166;7.312;2022-12-29T08:52:36;11.90;99.90
2873;DHT22;1444;49.166;7.312;2022-12-29T08:55:04;11.90;99.90
2873;DHT22;1444;49.166;7.312;2022-12-29T09:02:26;11.90;99.90
2873;DHT22;1444;49.166;7.312;2022-12-29T09:04:53;11.80;99.90
2873;DHT22;1444;49.166;7.312;2022-12-29T09:07:19;11.80;99.90
2873;DHT22;1444;49.166;7.312;2022-12-29T09:09:46;11.70;99.90
2873;DHT22;1444;49.166;7.312;2022-12-29T09:12:13;11.90;99.90
2873;DHT22;1444;49.166;7.312;2022-12-29T09:14:41;11.90;99.90
2873;DHT22;1444;49.166;7.312;2022-12-29T09:17:08;8.20;99.90
2873;DHT22;1444;49.166;7.312;2022-12-29T09:24:46;11.90;99.90
2873;DHT22;1444;49.166;7.312;2022-12-29T09:27:13;12.10;99.90
2873;DHT22;1444;49.166;7.312;2022-12-29T09:29:41;12.10;99.90
2873;DHT22;1444;49.166;7.312;2022-12-29T09:32:07;12.20;99.90
2873;DHT22;1444;49.166;7.312;2022-12-29T09:37:01;12.30;99.90
2873;DHT22;1444;49.166;7.312;2022-12-29T09:39:28;12.20;99.90
2873;DHT22;1444;49.166;7.312;2022-12-29T09:42:00;12.30;99.90
2873;DHT22;1444;49.166;7.312;2022-12-29T09:47:04;12.40;99.90
2873;DHT22;1444;49.166;7.312;2022-12-29T09:49:40;12.40;99.90
2873;DHT22;1444;49.166;7.312;2022-12-29T09:54:46;12.50;99.90
2873;DHT22;1444;49.166;7.312;2022-12-29T09:57:19;12.40;99.90
2873;DHT22;1444;49.166;7.312;2022-12-29T09:59:50;12.50;99.90
2873;DHT22;1444;49.166;7.312;2022-12-29T10:02:29;12.60;99.90
2873;DHT22;1444;49.166;7.312;2022-12-29T10:04:58;12.70;99.90
2873;DHT22;1444;49.166;7.312;2022-12-29T10:07:31;12.80;99.90
2873;DHT22;1444;49.166;7.312;2022-12-29T10:10:09;12.70;99.90
2873;DHT22;1444;49.166;7.312;2022-12-29T10:12:52;12.80;99.90
2873;DHT22;1444;49.166;7.312;2022-12-29T10:18:05;13.00;99.90
2873;DHT22;1444;49.166;7.312;2022-12-29T10:20:41;13.10;99.90
2873;DHT22;1444;49.166;7.312;2022-12-29T10:23:22;13.10;99.90
2873;DHT22;1444;49.166;7.312;2022-12-29T10:25:54;13.00;99.90
2873;DHT22;1444;49.166;7.312;2022-12-29T10:28:24;12.50;99.90
2873;DHT22;1444;49.166;7.312;2022-12-29T10:30:51;13.10;99.90
2873;DHT22;1444;49.166;7.312;2022-12-29T10:35:51;13.10;99.90
2873;DHT22;1444;49.166;7.312;2022-12-29T10:38:23;13.10;99.90
2873;DHT22;1444;49.166;7.312;2022-12-29T10:40:54;12.80;99.90
2873;DHT22;1444;49.166;7.312;2022-12-29T10:43:26;12.90;99.90
2873;DHT22;1444;49.166;7.312;2022-12-29T10:48:25;13.00;99.90
2873;DHT22;1444;49.166;7.312;2022-12-29T10:50:57;12.80;99.90
2873;DHT22;1444;49.166;7.312;2022-12-29T10:53:27;12.70;99.90
2873;DHT22;1444;49.166;7.312;2022-12-29T10:58:22;12.90;99.90
2873;DHT22;1444;49.166;7.312;2022-12-29T11:00:52;12.80;99.90
2873;DHT22;1444;49.166;7.312;2022-12-29T11:06:05;12.40;99.90
2873;DHT22;1444;49.166;7.312;2022-12-29T11:08:37;12.20;99.90
2873;DHT22;1444;49.166;7.312;2022-12-29T11:11:08;12.10;99.90
2873;DHT22;1444;49.166;7.312;2022-12-29T11:13:46;11.90;99.90
2873;DHT22;1444;49.166;7.312;2022-12-29T11:16:13;11.90;99.90
2873;DHT22;1444;49.166;7.312;2022-12-29T11:21:26;11.80;99.90
2873;DHT22;1444;49.166;7.312;2022-12-29T11:23:55;11.80;99.90
2873;DHT22;1444;49.166;7.312;2022-12-29T11:26:23;11.80;99.90
2873;DHT22;1444;49.166;7.312;2022-12-29T11:29:16;11.80;99.90
2873;DHT22;1444;49.166;7.312;2022-12-29T11:31:45;11.80;99.90
2873;DHT22;1444;49.166;7.312;2022-12-29T11:36:46;11.50;99.90
2873;DHT22;1444;49.166;7.312;2022-12-29T11:39:26;11.60;99.90
2873;DHT22;1444;49.166;7.312;2022-12-29T11:41:54;11.60;99.90
2873;DHT22;1444;49.166;7.312;2022-12-29T11:44:21;11.70;99.90
2873;DHT22;1444;49.166;7.312;2022-12-29T11:51:49;11.70;99.90
2873;DHT22;1444;49.166;7.312;2022-12-29T11:56:45;11.80;99.90
2873;DHT22;1444;49.166;7.312;2022-12-29T11:59:41;11.80;99.90
2873;DHT22;1444;49.166;7.312;2022-12-29T12:02:23;11.70;99.90
2873;DHT22;1444;49.166;7.312;2022-12-29T12:04:59;11.70;99.90
2873;DHT22;1444;49.166;7.312;2022-12-29T12:07:36;11.70;99.90
2873;DHT22;1444;49.166;7.312;2022-12-29T12:12:39;11.50;99.90
2873;DHT22;1444;49.166;7.312;2022-12-29T12:15:12;11.40;99.90
2873;DHT22;1444;49.166;7.312;2022-12-29T12:17:46;11.40;99.90
2873;DHT22;1444;49.166;7.312;2022-12-29T12:22:53;11.40;99.90
2873;DHT22;1444;49.166;7.312;2022-12-29T12:27:53;11.40;99.90
2873;DHT22;1444;49.166;7.312;2022-12-29T12:35:26;11.40;99.90
2873;DHT22;1444;49.166;7.312;2022-12-29T12:43:22;11.30;99.90
2873;DHT22;1444;49.166;7.312;2022-12-29T12:46:00;11.30;99.90
2873;DHT22;1444;49.166;7.312;2022-12-29T12:51:14;11.10;99.90
2873;DHT22;1444;49.166;7.312;2022-12-29T13:01:38;10.80;99.90
2873;DHT22;1444;49.166;7.312;2022-12-29T13:04:26;10.70;99.90
2873;DHT22;1444;49.166;7.312;2022-12-29T13:07:07;10.70;99.90
2873;DHT22;1444;49.166;7.312;2022-12-29T13:09:52;10.50;99.90
2873;DHT22;1444;49.166;7.312;2022-12-29T13:12:31;10.50;99.90
2873;DHT22;1444;49.166;7.312;2022-12-29T13:15:11;10.50;99.90
2873;DHT22;1444;49.166;7.312;2022-12-29T13:20:20;10.50;99.90
2873;DHT22;1444;49.166;7.312;2022-12-29T13:28:00;10.50;99.90
2873;DHT22;1444;49.166;7.312;2022-12-29T13:30:33;10.60;99.90
2873;DHT22;1444;49.166;7.312;2022-12-29T13:38:30;10.50;99.90
2873;DHT22;1444;49.166;7.312;2022-12-29T13:41:01;10.50;99.90
2873;DHT22;1444;49.166;7.312;2022-12-29T13:43:32;10.50;99.90
2873;DHT22;1444;49.166;7.312;2022-12-29T13:46:04;10.60;99.90
2873;DHT22;1444;49.166;7.312;2022-12-29T13:48:39;10.70;99.90
2873;DHT22;1444;49.166;7.312;2022-12-29T13:51:08;10.60;99.90
2873;DHT22;1444;49.166;7.312;2022-12-29T13:53:42;10.60;99.90
2873;DHT22;1444;49.166;7.312;2022-12-29T13:56:19;10.50;99.90
2873;DHT22;1444;49.166;7.312;2022-12-29T14:01:24;10.70;99.90
2873;DHT22;1444;49.166;7.312;2022-12-29T14:03:56;10.60;99.90
2873;DHT22;1444;49.166;7.312;2022-12-29T14:06:25;10.60;99.90
2873;DHT22;1444;49.166;7.312;2022-12-29T14:08:56;10.60;99.90
2873;DHT22;1444;49.166;7.312;2022-12-29T14:11:31;10.70;99.90
2873;DHT22;1444;49.166;7.312;2022-12-29T14:13:59;10.60;99.90
2873;DHT22;1444;49.166;7.312;2022-12-29T14:16:36;10.60;99.90
2873;DHT22;1444;49.166;7.312;2022-12-29T14:19:15;10.50;99.90
2873;DHT22;1444;49.166;7.312;2022-12-29T14:21:50;10.60;99.90
2873;DHT22;1444;49.166;7.312;2022-12-29T14:27:50;10.70;99.90
2873;DHT22;1444;49.166;7.312;2022-12-29T14:43:24;10.60;99.90
2873;DHT22;1444;49.166;7.312;2022-12-29T14:45:57;10.70;99.90
2873;DHT22;1444;49.166;7.312;2022-12-29T14:48:35;10.80;99.90
2873;DHT22;1444;49.166;7.312;2022-12-29T14:51:17;10.60;99.90
2873;DHT22;1444;49.166;7.312;2022-12-29T14:53:46;10.70;99.90
2873;DHT22;1444;49.166;7.312;2022-12-29T14:56:15;10.70;99.90
2873;DHT22;1444;49.166;7.312;2022-12-29T15:01:20;10.70;99.90
2873;DHT22;1444;49.166;7.312;2022-12-29T15:06:17;10.80;99.90
2873;DHT22;1444;49.166;7.312;2022-12-29T15:08:50;10.80;99.90
2873;DHT22;1444;49.166;7.312;2022-12-29T15:13:49;10.80;99.90
2873;DHT22;1444;49.166;7.312;2022-12-29T15:16:22;10.90;99.90
2873;DHT22;1444;49.166;7.312;2022-12-29T15:18:49;10.90;99.90
2873;DHT22;1444;49.166;7.312;2022-12-29T15:21:16;12.50;99.90
2873;DHT22;1444;49.166;7.312;2022-12-29T15:23:45;11.00;99.90
2873;DHT22;1444;49.166;7.312;2022-12-29T15:26:13;10.90;99.90
2873;DHT22;1444;49.166;7.312;2022-12-29T15:28:48;11.00;99.90
2873;DHT22;1444;49.166;7.312;2022-12-29T15:31:17;10.90;99.90
2873;DHT22;1444;49.166;7.312;2022-12-29T15:36:14;10.90;99.90
2873;DHT22;1444;49.166;7.312;2022-12-29T15:38:44;11.00;99.90
2873;DHT22;1444;49.166;7.312;2022-12-29T15:46:19;10.90;99.90
2873;DHT22;1444;49.166;7.312;2022-12-29T15:48:45;10.90;99.90
2873;DHT22;1444;49.166;7.312;2022-12-29T15:51:18;11.00;99.90
2873;DHT22;1444;49.166;7.312;2022-12-29T15:53:47;10.90;99.90
2873;DHT22;1444;49.166;7.312;2022-12-29T15:56:14;11.00;99.90
2873;DHT22;1444;49.166;7.312;2022-12-29T15:58:43;11.00;99.90
2873;DHT22;1444;49.166;7.312;2022-12-29T16:01:19;11.00;99.90
2873;DHT22;1444;49.166;7.312;2022-12-29T16:03:46;10.90;99.90
2873;DHT22;1444;49.166;7.312;2022-12-29T16:06:27;11.00;99.90
2873;DHT22;1444;49.166;7.312;2022-12-29T16:08:56;10.90;99.90
2873;DHT22;1444;49.166;7.312;2022-12-29T16:11:26;11.00;99.90
2873;DHT22;1444;49.166;7.312;2022-12-29T16:16:26;11.10;99.90
2873;DHT22;1444;49.166;7.312;2022-12-29T16:18:54;11.10;99.90
2873;DHT22;1444;49.166;7.312;2022-12-29T16:28:49;11.10;99.90
2873;DHT22;1444;49.166;7.312;2022-12-29T16:31:20;11.00;99.90
2873;DHT22;1444;49.166;7.312;2022-12-29T16:33:50;11.00;99.90
2873;DHT22;1444;49.166;7.312;2022-12-29T16:39:27;10.80;99.90
2873;DHT22;1444;49.166;7.312;2022-12-29T16:47:16;11.00;99.90
2873;DHT22;1444;49.166;7.312;2022-12-29T16:52:20;11.10;99.90
2873;DHT22;1444;49.166;7.312;2022-12-29T16:57:21;11.20;99.90
2873;DHT22;1444;49.166;7.312;2022-12-29T16:59:51;11.10;99.90
2873;DHT22;1444;49.166;7.312;2022-12-29T17:02:21;11.00;99.90
2873;DHT22;1444;49.166;7.312;2022-12-29T17:12:16;10.80;99.90
2873;DHT22;1444;49.166;7.312;2022-12-29T17:14:44;10.70;99.90
2873;DHT22;1444;49.166;7.312;2022-12-29T17:17:16;10.70;99.90
2873;DHT22;1444;49.166;7.312;2022-12-29T17:19:46;10.60;99.90
2873;DHT22;1444;49.166;7.312;2022-12-29T17:24:43;10.70;99.90
2873;DHT22;1444;49.166;7.312;2022-12-29T17:27:19;10.80;99.90
2873;DHT22;1444;49.166;7.312;2022-12-29T17:29:47;10.70;99.90
2873;DHT22;1444;49.166;7.312;2022-12-29T17:32:14;10.70;99.90
2873;DHT22;1444;49.166;7.312;2022-12-29T17:34:40;10.70;99.90
2873;DHT22;1444;49.166;7.312;2022-12-29T17:37:33;10.70;99.90
2873;DHT22;1444;49.166;7.312;2022-12-29T17:40:00;12.80;99.90
2873;DHT22;1444;49.166;7.312;2022-12-29T17:42:28;10.70;99.90
2873;DHT22;1444;49.166;7.312;2022-12-29T17:44:54;10.60;99.90
2873;DHT22;1444;49.166;7.312;2022-12-29T17:49:48;10.70;99.90
2873;DHT22;1444;49.166;7.312;2022-12-29T17:52:16;10.70;99.90
2873;DHT22;1444;49.166;7.312;2022-12-29T17:54:46;10.80;99.90
2873;DHT22;1444;49.166;7.312;2022-12-29T17:57:15;10.80;99.90
2873;DHT22;1444;49.166;7.312;2022-12-29T17:59:42;10.80;99.90
2873;DHT22;1444;49.166;7.312;2022-12-29T18:02:25;10.70;99.90
2873;DHT22;1444;49.166;7.312;2022-12-29T18:09:48;10.40;99.90
2873;DHT22;1444;49.166;7.312;2022-12-29T18:12:26;10.40;99.90
2873;DHT22;1444;49.166;7.312;2022-12-29T18:14:55;10.40;99.90
2873;DHT22;1444;49.166;7.312;2022-12-29T18:17:21;10.40;99.90
2873;DHT22;1444;49.166;7.312;2022-12-29T18:22:20;10.50;99.90
2873;DHT22;1444;49.166;7.312;2022-12-29T18:34:38;10.40;99.90
2873;DHT22;1444;49.166;7.312;2022-12-29T18:37:05;10.40;99.90
2873;DHT22;1444;49.166;7.312;2022-12-29T18:39:32;10.30;99.90
2873;DHT22;1444;49.166;7.312;2022-12-29T18:42:00;10.20;99.90
2873;DHT22;1444;49.166;7.312;2022-12-29T18:46:53;10.20;99.90
2873;DHT22;1444;49.166;7.312;2022-12-29T18:49:20;10.30;99.90
2873;DHT22;1444;49.166;7.312;2022-12-29T18:51:47;10.20;99.90
2873;DHT22;1444;49.166;7.312;2022-12-29T18:56:48;10.20;99.90
2873;DHT22;1444;49.166;7.312;2022-12-29T19:01:43;10.10;99.90
2873;DHT22;1444;49.166;7.312;2022-12-29T19:04:11;10.00;99.90
2873;DHT22;1444;49.166;7.312;2022-12-29T19:09:06;10.10;99.90
2873;DHT22;1444;49.166;7.312;2022-12-29T19:11:33;10.10;99.90
2873;DHT22;1444;49.166;7.312;2022-12-29T19:16:28;10.00;99.90
2873;DHT22;1444;49.166;7.312;2022-12-29T19:18:54;10.00;99.90
2873;DHT22;1444;49.166;7.312;2022-12-29T19:21:21;10.00;99.90
2873;DHT22;1444;49.166;7.312;2022-12-29T19:23:48;10.00;99.90
2873;DHT22;1444;49.166;7.312;2022-12-29T19:31:18;10.00;99.90
2873;DHT22;1444;49.166;7.312;2022-12-29T19:38:41;9.80;99.90
2873;DHT22;1444;49.166;7.312;2022-12-29T19:41:08;9.90;99.90
2873;DHT22;1444;49.166;7.312;2022-12-29T19:43:34;9.90;99.90
2873;DHT22;1444;49.166;7.312;2022-12-29T19:46:05;9.90;99.90
2873;DHT22;1444;49.166;7.312;2022-12-29T19:48:33;9.90;99.90
2873;DHT22;1444;49.166;7.312;2022-12-29T19:51:05;9.90;99.90
2873;DHT22;1444;49.166;7.312;2022-12-29T19:53:32;10.00;99.90